createdAt,value
2018-05-17T00:00:50.960Z,101304.73
2018-05-17T00:03:16.760Z,101301.00
2018-05-17T00:05:42.519Z,101291.15
2018-05-17T00:08:08.359Z,101299.41
2018-05-17T00:10:34.138Z,101301.63
2018-05-17T00:12:59.954Z,101291.35
2018-05-17T00:15:25.716Z,101295.45
2018-05-17T00:17:51.529Z,101304.30
2018-05-17T00:20:17.299Z,101303.07
2018-05-17T00:22:43.052Z,101303.80
2018-05-17T00:25:08.819Z,101298.37
2018-05-17T00:27:34.593Z,101296.55
2018-05-17T00:30:00.450Z,101293.19
2018-05-17T00:32:26.268Z,101297.73
2018-05-17T00:34:52.017Z,101292.19
2018-05-17T00:37:17.863Z,101294.18
2018-05-17T00:39:43.600Z,101296.85
2018-05-17T00:42:09.431Z,101297.70
2018-05-17T00:44:35.175Z,101292.74
2018-05-17T00:47:00.968Z,101292.89
2018-05-17T00:49:26.769Z,101292.52
2018-05-17T00:51:52.755Z,101290.23
2018-05-17T00:54:18.495Z,101293.82
2018-05-17T00:56:44.274Z,101290.66
2018-05-17T00:59:10.131Z,101290.95
2018-05-17T01:01:35.904Z,101295.00
2018-05-17T01:04:01.700Z,101291.81
2018-05-17T01:06:27.462Z,101285.09
2018-05-17T01:08:53.252Z,101282.19
2018-05-17T01:11:19.011Z,101287.73
2018-05-17T01:13:44.795Z,101291.44
2018-05-17T01:16:10.584Z,101285.00
2018-05-17T01:18:36.348Z,101292.45
2018-05-17T01:21:02.199Z,101295.83
2018-05-17T01:23:28.015Z,101299.93
2018-05-17T01:25:53.771Z,101300.66
2018-05-17T01:28:19.541Z,101300.68
2018-05-17T01:30:45.323Z,101304.91
2018-05-17T01:33:11.103Z,101308.45
2018-05-17T01:35:36.875Z,101308.97
2018-05-17T01:38:14.886Z,101305.28
2018-05-17T01:40:40.847Z,101320.23
2018-05-17T01:43:06.641Z,101312.13
2018-05-17T01:45:32.396Z,101310.53
2018-05-17T01:47:58.169Z,101317.05
2018-05-17T01:50:23.957Z,101313.31
2018-05-17T01:52:49.732Z,101311.40
2018-05-17T01:55:15.491Z,101303.12
2018-05-17T01:57:41.357Z,101301.84
2018-05-17T02:00:07.572Z,101305.39
2018-05-17T02:02:33.364Z,101301.51
2018-05-17T02:04:59.127Z,101304.24
2018-05-17T02:07:24.879Z,101297.87
2018-05-17T02:09:50.635Z,101301.03
2018-05-17T02:12:16.408Z,101301.59
2018-05-17T02:14:42.198Z,101308.75
2018-05-17T02:17:08.038Z,101294.33
2018-05-17T02:19:33.819Z,101300.39
2018-05-17T02:21:59.571Z,101299.66
2018-05-17T02:24:25.349Z,101295.30
2018-05-17T02:26:51.100Z,101295.59
2018-05-17T02:29:16.883Z,101304.80
2018-05-17T02:31:42.636Z,101300.11
2018-05-17T02:34:08.438Z,101297.77
2018-05-17T02:36:34.188Z,101297.64
2018-05-17T02:39:02.945Z,101300.77
2018-05-17T02:41:28.876Z,101292.58
2018-05-17T02:43:54.699Z,101299.18
2018-05-17T02:46:20.450Z,101297.13
2018-05-17T02:48:46.225Z,101300.05
2018-05-17T02:51:11.975Z,101291.50
2018-05-17T02:53:37.756Z,101295.47
2018-05-17T02:56:03.546Z,101291.73
2018-05-17T02:58:29.399Z,101293.85
2018-05-17T03:00:55.445Z,101292.73
2018-05-17T03:03:21.225Z,101292.64
2018-05-17T03:05:47.029Z,101288.18
2018-05-17T03:08:12.762Z,101288.15
2018-05-17T03:10:38.562Z,101286.64
2018-05-17T03:13:04.313Z,101292.73
2018-05-17T03:15:30.195Z,101279.93
2018-05-17T03:17:56.040Z,101293.66
2018-05-17T03:20:21.874Z,101290.70
2018-05-17T03:22:47.647Z,101293.63
2018-05-17T03:25:13.406Z,101291.28
2018-05-17T03:27:39.215Z,101293.20
2018-05-17T03:30:04.978Z,101293.73
2018-05-17T03:32:30.929Z,101286.50
2018-05-17T03:34:56.743Z,101289.80
2018-05-17T03:37:22.559Z,101288.81
2018-05-17T03:39:48.968Z,101287.28
2018-05-17T03:42:14.727Z,101294.55
2018-05-17T03:44:40.624Z,101290.61
2018-05-17T03:47:06.439Z,101288.95
2018-05-17T03:49:32.243Z,101292.31
2018-05-17T03:51:58.352Z,101282.97
2018-05-17T03:54:24.102Z,101279.15
2018-05-17T03:56:49.867Z,101287.61
2018-05-17T03:59:15.625Z,101284.01
2018-05-17T04:01:53.656Z,101281.37
2018-05-17T04:04:31.749Z,101279.97
2018-05-17T04:06:57.551Z,101278.73
2018-05-17T04:09:23.331Z,101275.34
2018-05-17T04:11:49.079Z,101273.98
2018-05-17T04:14:14.925Z,101276.22
2018-05-17T04:16:40.717Z,101280.72
2018-05-17T04:19:06.466Z,101282.77
2018-05-17T04:21:32.304Z,101285.58
2018-05-17T04:23:58.067Z,101288.63
2018-05-17T04:26:23.816Z,101290.35
2018-05-17T04:28:49.560Z,101297.41
2018-05-17T04:31:15.352Z,101295.61
2018-05-17T04:33:41.152Z,101288.96
2018-05-17T04:36:06.923Z,101285.95
2018-05-17T04:38:32.672Z,101289.25
2018-05-17T04:40:58.575Z,101286.16
2018-05-17T04:43:24.312Z,101288.33
2018-05-17T04:45:50.091Z,101290.64
2018-05-17T04:48:15.827Z,101292.19
2018-05-17T04:50:41.712Z,101288.28
2018-05-17T04:53:07.522Z,101287.78
2018-05-17T04:55:33.368Z,101275.80
2018-05-17T04:57:59.272Z,101278.11
2018-05-17T05:00:25.307Z,101280.97
2018-05-17T05:02:51.082Z,101288.56
2018-05-17T05:05:16.850Z,101281.23
2018-05-17T05:07:42.662Z,101288.24
2018-05-17T05:10:08.414Z,101282.98
2018-05-17T05:12:34.203Z,101287.55
2018-05-17T05:14:59.983Z,101299.13
2018-05-17T05:17:25.803Z,101295.39
2018-05-17T05:19:51.580Z,101292.62
2018-05-17T05:22:17.585Z,101287.77
2018-05-17T05:24:43.359Z,101287.87
2018-05-17T05:27:09.138Z,101286.92
2018-05-17T05:29:34.900Z,101293.86
2018-05-17T05:32:00.873Z,101306.46
2018-05-17T05:34:26.715Z,101294.50
2018-05-17T05:36:52.467Z,101294.50
2018-05-17T05:39:18.220Z,101308.51
2018-05-17T05:41:44.200Z,101308.51
2018-05-17T05:44:09.959Z,101311.86
2018-05-17T05:46:35.724Z,101314.09
2018-05-17T05:49:01.487Z,101311.14
2018-05-17T05:51:27.611Z,101308.13
2018-05-17T05:53:53.405Z,101319.38
2018-05-17T05:56:19.217Z,101308.83
2018-05-17T05:58:44.975Z,101312.97
2018-05-17T06:01:10.788Z,101316.61
2018-05-17T06:03:36.551Z,101311.43
2018-05-17T06:06:02.401Z,101324.19
2018-05-17T06:08:28.268Z,101314.27
2018-05-17T06:13:44.911Z,101316.33
2018-05-17T06:16:10.675Z,101322.64
2018-05-17T06:18:36.447Z,101320.11
2018-05-17T06:21:02.211Z,101319.56
2018-05-17T06:23:27.983Z,101326.70
2018-05-17T06:25:53.732Z,101322.39
2018-05-17T06:28:19.495Z,101326.36
2018-05-17T06:30:45.257Z,101317.91
2018-05-17T06:33:11.071Z,101322.39
2018-05-17T06:35:36.869Z,101320.30
2018-05-17T06:38:02.628Z,101323.32
2018-05-17T06:40:28.415Z,101323.12
2018-05-17T06:42:54.238Z,101331.44
2018-05-17T06:45:19.971Z,101328.41
2018-05-17T06:47:45.731Z,101324.67
2018-05-17T06:50:11.491Z,101335.34
2018-05-17T06:52:37.267Z,101332.47
2018-05-17T06:55:03.028Z,101332.34
2018-05-17T06:57:28.824Z,101334.16
2018-05-17T06:59:54.562Z,101333.84
2018-05-17T07:02:20.373Z,101328.80
2018-05-17T07:04:46.411Z,101335.62
2018-05-17T07:07:12.172Z,101343.67
2018-05-17T07:09:37.944Z,101341.28
2018-05-17T07:12:03.706Z,101332.69
2018-05-17T07:14:29.470Z,101341.70
2018-05-17T07:16:55.267Z,101342.80
2018-05-17T07:19:21.051Z,101355.23
2018-05-17T07:21:46.804Z,101341.42
2018-05-17T07:24:12.639Z,101338.84
2018-05-17T07:26:38.362Z,101344.92
2018-05-17T07:29:04.142Z,101350.08
2018-05-17T07:31:29.933Z,101351.84
2018-05-17T07:33:55.683Z,101347.56
2018-05-17T07:36:21.434Z,101349.67
2018-05-17T07:38:47.256Z,101353.88
2018-05-17T07:41:14.501Z,101367.32
2018-05-17T07:43:40.272Z,101364.56
2018-05-17T07:46:06.052Z,101360.45
2018-05-17T07:48:32.013Z,101362.92
2018-05-17T07:50:57.796Z,101365.44
2018-05-17T07:53:23.588Z,101352.86
2018-05-17T07:55:49.352Z,101350.33
2018-05-17T07:58:15.161Z,101361.33
2018-05-17T08:00:40.965Z,101356.09
2018-05-17T08:03:06.826Z,101361.67
2018-05-17T08:05:32.597Z,101359.80
2018-05-17T08:07:58.439Z,101361.71
2018-05-17T08:10:24.195Z,101362.41
2018-05-17T08:12:49.964Z,101364.50
2018-05-17T08:15:15.756Z,101358.80
2018-05-17T08:17:41.572Z,101356.39
2018-05-17T08:20:07.332Z,101372.91
2018-05-17T08:22:33.264Z,101372.78
2018-05-17T08:24:59.055Z,101370.39
2018-05-17T08:27:24.810Z,101376.78
2018-05-17T08:29:50.615Z,101379.98
2018-05-17T08:32:16.407Z,101383.23
2018-05-17T08:34:42.170Z,101384.21
2018-05-17T08:37:07.928Z,101381.11
2018-05-17T08:39:33.720Z,101390.11
2018-05-17T08:41:59.513Z,101390.13
2018-05-17T08:44:25.290Z,101383.05
2018-05-17T08:46:51.066Z,101386.44
2018-05-17T08:49:16.832Z,101380.75
2018-05-17T08:51:42.597Z,101378.94
2018-05-17T08:54:08.466Z,101389.07
2018-05-17T08:56:34.232Z,101391.78
2018-05-17T08:59:00.004Z,101391.95
2018-05-17T09:01:25.811Z,101402.80
2018-05-17T09:03:51.864Z,101387.80
2018-05-17T09:06:17.714Z,101395.95
2018-05-17T09:08:43.464Z,101401.95
2018-05-17T09:11:09.211Z,101400.75
2018-05-17T09:13:35.095Z,101405.78
2018-05-17T09:16:00.774Z,101402.72
2018-05-17T09:18:26.546Z,101404.94
2018-05-17T09:20:52.316Z,101414.48
2018-05-17T09:23:18.076Z,101409.76
2018-05-17T09:25:43.839Z,101404.27
2018-05-17T09:28:09.607Z,101410.80
2018-05-17T09:39:13.849Z,101432.63
2018-05-17T09:41:39.602Z,101427.51
2018-05-17T09:44:05.367Z,101424.16
2018-05-17T09:46:31.369Z,101430.76
2018-05-17T09:48:57.133Z,101430.39
2018-05-17T09:51:22.911Z,101427.25
2018-05-17T09:53:48.664Z,101428.16
2018-05-17T09:56:14.434Z,101425.30
2018-05-17T09:58:40.200Z,101445.09
2018-05-17T10:01:05.988Z,101435.64
2018-05-17T10:03:31.862Z,101430.56
2018-05-17T10:05:57.635Z,101431.72
2018-05-17T10:08:23.443Z,101411.52
2018-05-17T10:10:49.212Z,101423.48
2018-05-17T10:13:14.979Z,101420.31
2018-05-17T10:15:40.783Z,101427.91
2018-05-17T10:18:06.711Z,101420.98
2018-05-17T10:20:32.524Z,101412.87
2018-05-17T10:22:58.355Z,101416.94
2018-05-17T10:25:24.084Z,101423.90
2018-05-17T10:27:49.828Z,101416.16
2018-05-17T10:30:15.612Z,101416.20
2018-05-17T10:32:41.401Z,101408.48
2018-05-17T10:35:07.168Z,101422.72
2018-05-17T10:37:32.935Z,101419.50
2018-05-17T10:39:58.711Z,101427.88
2018-05-17T10:42:24.492Z,101419.00
2018-05-17T10:44:50.271Z,101422.97
2018-05-17T10:47:16.033Z,101418.83
2018-05-17T10:49:41.783Z,101419.75
2018-05-17T10:52:07.587Z,101423.83
2018-05-17T10:54:33.451Z,101427.72
2018-05-17T10:56:59.211Z,101427.45
2018-05-17T10:59:25.013Z,101426.30
2018-05-17T11:01:50.768Z,101425.97
2018-05-17T11:04:16.543Z,101426.05
2018-05-17T11:06:42.283Z,101433.84
2018-05-17T11:09:08.046Z,101431.45
2018-05-17T11:11:33.813Z,101416.69
2018-05-17T11:13:59.591Z,101427.61
2018-05-17T11:16:25.411Z,101415.09
2018-05-17T11:18:51.155Z,101416.42
2018-05-17T11:21:16.911Z,101418.82
2018-05-17T11:23:42.672Z,101423.33
2018-05-17T11:26:08.451Z,101435.75
2018-05-17T11:28:34.229Z,101436.58
2018-05-17T11:31:00.006Z,101438.23
2018-05-17T11:33:25.764Z,101440.71
2018-05-17T11:35:51.519Z,101428.12
2018-05-17T11:38:17.284Z,101432.06
2018-05-17T11:40:43.359Z,101421.20
2018-05-17T11:43:09.231Z,101418.28
2018-05-17T11:45:35.243Z,101425.62
2018-05-17T11:48:01.032Z,101425.86
2018-05-17T11:50:26.813Z,101425.42
2018-05-17T11:52:52.559Z,101432.22
2018-05-17T11:55:18.318Z,101423.14
2018-05-17T11:57:44.202Z,101421.62
2018-05-17T12:00:10.071Z,101436.37
2018-05-17T12:02:36.197Z,101434.39
2018-05-17T12:05:01.943Z,101431.09
2018-05-17T12:07:27.782Z,101432.22
2018-05-17T12:09:53.490Z,101418.61
2018-05-17T12:12:19.241Z,101439.88
2018-05-17T12:14:45.007Z,101423.67
2018-05-17T12:17:10.891Z,101430.11
2018-05-17T12:19:36.664Z,101425.39
2018-05-17T12:22:02.456Z,101425.45
2018-05-17T12:24:28.307Z,101420.05
2018-05-17T12:26:54.095Z,101423.78
2018-05-17T12:29:19.887Z,101412.83
2018-05-17T12:31:45.697Z,101422.57
2018-05-17T12:34:11.431Z,101422.42
2018-05-17T12:36:37.218Z,101425.27
2018-05-17T12:39:03.018Z,101425.61
2018-05-17T12:41:28.814Z,101430.19
2018-05-17T12:43:54.573Z,101436.91
2018-05-17T12:46:20.355Z,101436.24
2018-05-17T12:48:46.116Z,101433.73
2018-05-17T12:51:11.900Z,101439.23
2018-05-17T12:53:37.678Z,101440.08
2018-05-17T12:56:03.568Z,101444.45
2018-05-17T12:58:30.140Z,101439.97
2018-05-17T13:00:55.956Z,101439.31
2018-05-17T13:03:21.749Z,101436.55
2018-05-17T13:05:47.502Z,101438.62
2018-05-17T13:08:13.266Z,101441.00
2018-05-17T13:10:39.139Z,101435.73
2018-05-17T13:13:05.059Z,101431.27
2018-05-17T13:15:30.767Z,101422.16
2018-05-17T13:17:56.531Z,101426.87
2018-05-17T13:20:22.375Z,101427.19
2018-05-17T13:22:48.439Z,101423.48
2018-05-17T13:25:14.192Z,101424.19
2018-05-17T13:27:39.995Z,101424.67
2018-05-17T13:30:05.784Z,101422.55
2018-05-17T13:32:31.618Z,101423.94
2018-05-17T13:34:57.399Z,101419.98
2018-05-17T13:37:23.275Z,101419.92
2018-05-17T13:39:48.940Z,101421.17
2018-05-17T13:42:14.706Z,101415.84
2018-05-17T13:44:40.491Z,101422.77
2018-05-17T13:47:06.654Z,101421.08
2018-05-17T13:49:32.403Z,101423.31
2018-05-17T13:51:58.170Z,101422.72
2018-05-17T13:54:23.941Z,101421.39
2018-05-17T13:56:49.725Z,101424.65
2018-05-17T13:59:15.471Z,101419.65
2018-05-17T14:01:41.243Z,101417.95
2018-05-17T14:04:07.153Z,101411.91
2018-05-17T14:06:32.911Z,101408.19
2018-05-17T14:08:58.665Z,101409.99
2018-05-17T14:11:24.416Z,101412.80
2018-05-17T14:13:50.285Z,101415.32
2018-05-17T14:16:15.964Z,101417.66
2018-05-17T14:18:41.738Z,101415.44
2018-05-17T14:21:07.499Z,101411.25
2018-05-17T14:23:33.279Z,101416.05
2018-05-17T14:25:59.023Z,101417.92
2018-05-17T14:28:24.819Z,101425.74
2018-05-17T14:30:50.603Z,101429.51
2018-05-17T14:33:16.429Z,101421.92
2018-05-17T14:35:42.191Z,101419.30
2018-05-17T14:38:08.143Z,101423.20
2018-05-17T14:40:33.928Z,101426.61
2018-05-17T14:42:59.720Z,101430.48
2018-05-17T14:45:25.475Z,101426.63
2018-05-17T14:47:51.251Z,101432.16
2018-05-17T14:50:17.207Z,101430.14
2018-05-17T14:52:43.239Z,101425.80
2018-05-17T14:55:09.060Z,101418.23
2018-05-17T14:57:34.778Z,101417.38
2018-05-17T15:00:00.590Z,101419.14
2018-05-17T15:02:26.327Z,101422.80
2018-05-17T15:04:52.095Z,101420.50
2018-05-17T15:07:17.907Z,101429.83
2018-05-17T15:09:43.763Z,101415.59
2018-05-17T15:12:09.536Z,101423.59
2018-05-17T15:14:35.308Z,101410.27
2018-05-17T15:17:01.120Z,101414.79
2018-05-17T15:19:26.881Z,101424.48
2018-05-17T15:21:52.983Z,101410.94
2018-05-17T15:24:18.752Z,101423.11
2018-05-17T15:26:44.525Z,101421.59
2018-05-17T15:29:10.326Z,101423.14
2018-05-17T15:31:36.060Z,101425.34
2018-05-17T15:34:01.853Z,101425.08
2018-05-17T15:36:27.601Z,101418.12
2018-05-17T15:38:53.487Z,101430.11
2018-05-17T15:41:19.304Z,101421.79
2018-05-17T15:43:45.190Z,101424.66
2018-05-17T15:46:11.008Z,101423.44
2018-05-17T15:48:36.788Z,101425.72
2018-05-17T15:51:02.615Z,101425.17
2018-05-17T15:53:28.489Z,101424.50
2018-05-17T15:55:54.166Z,101417.60
2018-05-17T15:58:19.916Z,101429.55
2018-05-17T16:00:45.763Z,101425.50
2018-05-17T16:03:11.547Z,101426.36
2018-05-17T16:05:37.407Z,101430.55
2018-05-17T16:08:03.177Z,101433.93
2018-05-17T16:10:28.992Z,101433.33
2018-05-17T16:12:54.751Z,101432.83
2018-05-17T16:15:20.629Z,101434.45
2018-05-17T16:17:46.347Z,101429.99
2018-05-17T16:20:12.211Z,101427.64
2018-05-17T16:22:37.991Z,101430.79
2018-05-17T16:25:03.952Z,101428.56
2018-05-17T16:27:29.720Z,101429.59
2018-05-17T16:29:55.588Z,101430.30
2018-05-17T16:32:21.357Z,101425.17
2018-05-17T16:34:47.120Z,101427.05
2018-05-17T16:37:12.879Z,101429.09
2018-05-17T16:39:38.655Z,101430.45
2018-05-17T16:42:04.415Z,101432.73
2018-05-17T16:44:30.166Z,101433.95
2018-05-17T16:46:55.946Z,101434.02
2018-05-17T16:49:21.766Z,101434.88
2018-05-17T16:51:47.520Z,101433.47
2018-05-17T16:54:13.406Z,101433.55
2018-05-17T16:56:39.067Z,101424.56
2018-05-17T16:59:04.819Z,101438.44
2018-05-17T17:01:30.624Z,101427.11
2018-05-17T17:03:56.392Z,101435.91
2018-05-17T17:06:22.175Z,101436.48
2018-05-17T17:08:47.952Z,101443.09
2018-05-17T17:11:13.771Z,101446.16
2018-05-17T17:13:39.511Z,101435.23
2018-05-17T17:16:05.368Z,101440.36
2018-05-17T17:18:31.149Z,101439.88
2018-05-17T17:20:56.909Z,101436.23
2018-05-17T17:23:22.687Z,101430.57
2018-05-17T17:25:48.451Z,101429.05
2018-05-17T17:28:14.407Z,101420.73
2018-05-17T17:30:40.194Z,101423.16
2018-05-17T17:33:06.044Z,101426.75
2018-05-17T17:35:31.926Z,101425.79
2018-05-17T17:37:57.713Z,101414.47
2018-05-17T17:43:18.406Z,101416.57
2018-05-17T17:45:44.159Z,101407.40
2018-05-17T17:48:09.971Z,101413.16
2018-05-17T17:50:35.787Z,101416.59
2018-05-17T17:53:01.683Z,101417.51
2018-05-17T17:55:27.454Z,101415.64
2018-05-17T17:57:53.207Z,101419.33
2018-05-17T18:00:18.992Z,101423.72
2018-05-17T18:02:44.736Z,101420.93
2018-05-17T18:05:10.659Z,101424.47
2018-05-17T18:07:36.411Z,101430.31
2018-05-17T18:10:02.183Z,101418.85
2018-05-17T18:12:27.967Z,101432.52
2018-05-17T18:14:54.156Z,101432.94
2018-05-17T18:17:19.923Z,101429.25
2018-05-17T18:19:45.675Z,101428.66
2018-05-17T18:22:11.439Z,101428.66
2018-05-17T18:24:37.310Z,101435.99
2018-05-17T18:27:03.088Z,101435.99
2018-05-17T18:29:28.839Z,101430.30
2018-05-17T18:31:54.628Z,101433.63
2018-05-17T18:34:20.374Z,101432.94
2018-05-17T18:36:46.226Z,101434.58
2018-05-17T18:39:11.971Z,101446.44
2018-05-17T18:41:37.739Z,101443.12
2018-05-17T18:44:03.516Z,101454.38
2018-05-17T18:46:29.279Z,101458.94
2018-05-17T18:48:55.049Z,101456.08
2018-05-17T18:51:20.820Z,101468.15
2018-05-17T18:53:46.596Z,101467.73
2018-05-17T18:56:12.349Z,101473.63
2018-05-17T18:58:38.105Z,101470.87
2018-05-17T19:01:03.871Z,101477.45
2018-05-17T19:03:29.663Z,101472.52
2018-05-17T19:05:55.428Z,101475.71
2018-05-17T19:08:21.419Z,101468.55
2018-05-17T19:10:47.204Z,101475.08
2018-05-17T19:13:12.990Z,101475.14
2018-05-17T19:15:38.759Z,101478.88
2018-05-17T19:18:04.557Z,101482.13
2018-05-17T19:20:30.369Z,101470.28
2018-05-17T19:22:56.119Z,101479.98
2018-05-17T19:25:21.854Z,101478.30
2018-05-17T19:27:47.648Z,101484.77
2018-05-17T19:30:13.418Z,101481.28
2018-05-17T19:32:39.203Z,101481.28
2018-05-17T19:35:04.988Z,101486.73
2018-05-17T19:37:30.752Z,101484.35
2018-05-17T19:39:56.520Z,101483.25
2018-05-17T19:42:22.288Z,101491.82
2018-05-17T19:44:48.060Z,101497.03
2018-05-17T19:47:13.822Z,101501.33
2018-05-17T19:49:39.642Z,101502.08
2018-05-17T19:52:05.516Z,101502.62
2018-05-17T19:54:31.297Z,101498.68
2018-05-17T19:56:57.067Z,101493.92
2018-05-17T19:59:22.866Z,101494.61
2018-05-17T20:01:48.599Z,101491.50
2018-05-17T20:04:14.360Z,101491.20
2018-05-17T20:06:40.107Z,101488.56
2018-05-17T20:09:05.916Z,101492.88
2018-05-17T20:11:31.709Z,101494.03
2018-05-17T20:13:57.495Z,101493.06
2018-05-17T20:16:23.240Z,101496.39
2018-05-17T20:18:49.019Z,101495.92
2018-05-17T20:21:14.766Z,101498.41
2018-05-17T20:23:40.634Z,101494.45
2018-05-17T20:26:06.492Z,101491.97
2018-05-17T20:28:32.259Z,101494.93
2018-05-17T20:30:58.015Z,101498.34
2018-05-17T20:33:23.999Z,101490.07
2018-05-17T20:35:49.763Z,101490.02
2018-05-17T20:38:15.527Z,101494.66
2018-05-17T20:40:41.396Z,101492.08
2018-05-17T20:43:07.152Z,101484.66
2018-05-17T20:45:32.907Z,101486.19
2018-05-17T20:47:58.675Z,101487.45
2018-05-17T20:50:24.452Z,101487.66
2018-05-17T20:52:50.217Z,101482.95
2018-05-17T20:55:15.990Z,101483.95
2018-05-17T20:57:41.780Z,101486.51
2018-05-17T21:00:07.560Z,101486.03
2018-05-17T21:02:33.328Z,101480.25
2018-05-17T21:04:59.275Z,101484.55
2018-05-17T21:07:25.163Z,101480.41
2018-05-17T21:09:51.183Z,101487.73
2018-05-17T21:12:16.956Z,101483.62
2018-05-17T21:14:42.703Z,101487.42
2018-05-17T21:17:08.524Z,101480.78
2018-05-17T21:19:34.299Z,101483.89
2018-05-17T21:22:00.055Z,101481.00
2018-05-17T21:24:25.803Z,101482.73
2018-05-17T21:26:51.559Z,101484.95
2018-05-17T21:29:17.356Z,101480.22
2018-05-17T21:31:43.125Z,101477.84
2018-05-17T21:34:08.916Z,101483.53
2018-05-17T21:36:34.665Z,101479.80
2018-05-17T21:39:00.419Z,101481.05
2018-05-17T21:41:26.200Z,101480.69
2018-05-17T21:43:52.020Z,101480.84
2018-05-17T21:46:17.771Z,101483.11
2018-05-17T21:48:43.542Z,101487.34
2018-05-17T21:51:09.303Z,101479.77
2018-05-17T21:53:35.060Z,101477.34
2018-05-17T21:56:00.831Z,101479.77
2018-05-17T21:58:30.576Z,101476.38
2018-05-17T22:00:56.356Z,101478.17
2018-05-17T22:03:22.157Z,101480.02
2018-05-17T22:05:47.931Z,101481.84
2018-05-17T22:08:13.747Z,101479.12
2018-05-17T22:10:39.512Z,101480.39
2018-05-17T22:13:05.421Z,101479.91
2018-05-17T22:15:31.167Z,101481.96
2018-05-17T22:17:57.008Z,101472.89
2018-05-17T22:20:22.799Z,101473.73
2018-05-17T22:22:48.595Z,101475.66
2018-05-17T22:25:14.337Z,101481.55
2018-05-17T22:27:40.357Z,101468.86
2018-05-17T22:30:06.156Z,101478.85
2018-05-17T22:32:32.132Z,101476.95
2018-05-17T22:34:57.914Z,101480.46
2018-05-17T22:37:23.659Z,101472.03
2018-05-17T22:39:49.432Z,101479.23
2018-05-17T22:42:15.210Z,101473.08
2018-05-17T22:44:40.973Z,101482.67
2018-05-17T22:47:06.768Z,101476.97
2018-05-17T22:49:32.586Z,101476.97
2018-05-17T22:51:58.351Z,101468.97
2018-05-17T22:54:24.133Z,101470.28
2018-05-17T22:59:58.659Z,101469.03
2018-05-17T23:02:24.436Z,101466.57
2018-05-17T23:04:50.232Z,101463.37
2018-05-17T23:07:16.107Z,101464.30
2018-05-17T23:09:41.988Z,101462.77
2018-05-17T23:12:07.804Z,101458.29
2018-05-17T23:14:33.569Z,101462.23
2018-05-17T23:16:59.407Z,101465.47
2018-05-17T23:19:25.186Z,101465.59
2018-05-17T23:21:50.987Z,101464.75
2018-05-17T23:24:16.788Z,101466.77
2018-05-17T23:26:42.628Z,101460.94
2018-05-17T23:29:08.407Z,101466.78
2018-05-17T23:31:34.214Z,101454.27
2018-05-17T23:34:00.022Z,101456.84
2018-05-17T23:36:25.823Z,101456.68
2018-05-17T23:38:51.635Z,101451.62
2018-05-17T23:41:29.782Z,101463.99
2018-05-17T23:43:55.551Z,101462.25
2018-05-17T23:46:21.445Z,101461.72
2018-05-17T23:48:47.246Z,101456.73
2018-05-17T23:51:13.037Z,101456.46
2018-05-17T23:53:38.807Z,101452.09
2018-05-17T23:56:04.581Z,101452.52
2018-05-17T23:58:30.392Z,101455.29
